Time;durP1;ratioP1;P1;durP2;ratioP2;P2;SDS_P1;SDS_P2;PMS_P1;PMS_P2;Temp;Humidity;BMP_temperature;BMP_pressure;BME280_temperature;BME280_humidity;BME280_pressure;Samples;Min_cycle;Max_cycle;Signal;HPM_P1;HPM_P2
2021/03/23 00:01:15;;;;;;;6.60;2.40;;;7.30;77.40;;;;;;5151865;27;20039;-67
2021/03/23 00:03:44;;;;;;;4.07;1.93;;;7.30;77.40;;;;;;5151714;27;20308;-66
2021/03/23 00:06:13;;;;;;;6.53;2.40;;;7.30;77.70;;;;;;5152016;27;20292;-65
2021/03/23 00:09:00;;;;;;;3.93;2.23;;;7.30;77.80;;;;;;5151780;27;20494;-65
2021/03/23 00:11:38;;;;;;;5.83;2.07;;;7.30;77.70;;;;;;5150982;27;20292;-65
2021/03/23 00:14:07;;;;;;;4.27;2.10;;;7.30;77.70;;;;;;5152214;27;20743;-65
2021/03/23 00:16:42;;;;;;;3.37;2.13;;;7.30;77.80;;;;;;5151275;27;20292;-65
2021/03/23 00:19:09;;;;;;;5.20;2.23;;;7.30;77.80;;;;;;5151516;27;20288;-64
2021/03/23 00:21:35;;;;;;;3.73;1.80;;;7.30;78.10;;;;;;5152237;27;20664;-65
2021/03/23 00:24:01;;;;;;;5.13;2.03;;;7.30;78.10;;;;;;5151209;27;20314;-65
2021/03/23 00:26:28;;;;;;;6.53;2.57;;;7.30;78.00;;;;;;5152031;27;20149;-65
2021/03/23 00:28:56;;;;;;;4.87;2.13;;;7.30;78.00;;;;;;5151557;27;20347;-65
2021/03/23 00:31:25;;;;;;;7.03;1.87;;;7.30;78.00;;;;;;5150656;27;20298;-65
2021/03/23 00:33:50;;;;;;;6.57;1.87;;;7.30;78.00;;;;;;5151556;27;20770;-65
2021/03/23 00:36:25;;;;;;;4.33;1.90;;;7.30;78.00;;;;;;5151286;27;20295;-64
2021/03/23 00:38:53;;;;;;;3.50;1.80;;;7.30;77.90;;;;;;5150569;27;20133;-65
2021/03/23 00:41:19;;;;;;;2.93;1.90;;;7.30;77.80;;;;;;5151291;27;20395;-65
2021/03/23 00:43:44;;;;;;;5.23;2.23;;;7.30;78.10;;;;;;5151531;27;20401;-65
2021/03/23 00:46:10;;;;;;;2.03;1.47;;;7.40;77.90;;;;;;5149484;27;20569;-65
2021/03/23 00:48:35;;;;;;;4.20;1.50;;;7.40;77.80;;;;;;5151223;27;20496;-65
2021/03/23 00:51:02;;;;;;;4.50;1.73;;;7.40;77.80;;;;;;5150764;27;20047;-65
2021/03/23 00:53:28;;;;;;;5.03;1.97;;;7.40;77.90;;;;;;5151186;27;20415;-65
2021/03/23 00:55:53;;;;;;;3.37;1.90;;;7.40;77.90;;;;;;5150976;27;20292;-65
2021/03/23 00:58:19;;;;;;;4.33;1.77;;;7.40;77.90;;;;;;5150186;27;20074;-65
2021/03/23 01:00:45;;;;;;;4.73;2.13;;;7.40;78.00;;;;;;5151127;27;20047;-64
2021/03/23 01:03:10;;;;;;;6.30;1.90;;;7.40;78.00;;;;;;5150370;27;20160;-65
2021/03/23 01:05:36;;;;;;;4.10;2.00;;;7.40;78.10;;;;;;5150041;27;20047;-65
2021/03/23 01:08:04;;;;;;;4.87;2.17;;;7.40;78.20;;;;;;5150720;27;20076;-65
2021/03/23 01:10:32;;;;;;;5.80;2.10;;;7.30;79.30;;;;;;5151474;27;20043;-65
2021/03/23 01:12:58;;;;;;;4.20;2.47;;;7.30;78.30;;;;;;5150185;27;20304;-66
2021/03/23 01:15:30;;;;;;;4.60;2.77;;;7.40;78.30;;;;;;5150631;27;20296;-66
2021/03/23 01:17:56;;;;;;;5.13;2.37;;;7.30;78.30;;;;;;5150896;27;20047;-66
2021/03/23 01:20:23;;;;;;;5.20;2.20;;;7.30;78.50;;;;;;5149603;27;20655;-65
2021/03/23 01:22:49;;;;;;;5.50;2.63;;;7.30;78.60;;;;;;5150162;27;20822;-65
2021/03/23 01:25:16;;;;;;;5.67;2.30;;;7.30;78.50;;;;;;5150201;27;20291;-65
2021/03/23 01:27:41;;;;;;;3.87;2.13;;;7.30;78.60;;;;;;5149985;27;20061;-65
2021/03/23 01:30:09;;;;;;;3.63;2.20;;;7.30;78.60;;;;;;5150041;27;20784;-65
2021/03/23 01:32:35;;;;;;;4.50;2.30;;;7.30;78.50;;;;;;5150393;27;20693;-65
2021/03/23 01:35:02;;;;;;;5.23;2.40;;;7.30;78.60;;;;;;5149371;27;20284;-65
2021/03/23 01:37:27;;;;;;;4.70;2.20;;;7.40;78.60;;;;;;5150916;27;20058;-65
2021/03/23 01:39:53;;;;;;;4.77;2.40;;;7.40;78.70;;;;;;5150151;27;20663;-65
2021/03/23 01:42:19;;;;;;;4.57;2.53;;;7.40;78.70;;;;;;5149100;27;20050;-65
2021/03/23 01:45:07;;;;;;;5.67;2.80;;;7.40;78.70;;;;;;5150448;27;20138;-65
2021/03/23 01:47:32;;;;;;;4.40;2.80;;;7.40;78.80;;;;;;5149871;27;20288;-65
2021/03/23 01:49:58;;;;;;;5.93;3.30;;;7.40;78.80;;;;;;5149788;27;20352;-65
2021/03/23 01:52:28;;;;;;;6.97;3.00;;;7.40;79.00;;;;;;5149826;27;20442;-65
2021/03/23 01:55:02;;;;;;;6.77;3.13;;;7.40;79.00;;;;;;5149496;27;20356;-65
2021/03/23 01:57:30;;;;;;;6.67;3.37;;;7.40;79.20;;;;;;5150438;27;20315;-65
2021/03/23 01:59:57;;;;;;;5.43;3.20;;;7.40;79.10;;;;;;5150069;27;20660;-66
2021/03/23 02:02:29;;;;;;;4.60;3.07;;;7.50;79.20;;;;;;5130517;27;20303;-65
2021/03/23 02:04:55;;;;;;;7.53;4.38;;;7.50;79.30;;;;;;5150248;27;20669;-65
2021/03/23 02:07:20;;;;;;;8.77;4.87;;;7.50;79.00;;;;;;5149643;27;20043;-66
2021/03/23 02:09:47;;;;;;;7.33;4.07;;;7.50;78.90;;;;;;5148932;27;20210;-65
2021/03/23 02:12:17;;;;;;;9.17;4.47;;;7.50;78.90;;;;;;5149547;27;20950;-65
2021/03/23 02:14:45;;;;;;;10.23;5.00;;;7.50;78.60;;;;;;5150101;27;20351;-65
2021/03/23 02:17:25;;;;;;;9.30;4.97;;;7.50;78.70;;;;;;5148944;27;20302;-65
2021/03/23 02:19:55;;;;;;;7.27;4.63;;;7.50;78.90;;;;;;5149591;27;20408;-65
2021/03/23 02:22:30;;;;;;;9.20;5.40;;;7.60;78.80;;;;;;5148762;27;20299;-65
2021/03/23 02:24:56;;;;;;;8.33;5.03;;;7.50;78.70;;;;;;5150008;27;20296;-65
2021/03/23 02:27:23;;;;;;;13.07;6.33;;;7.50;78.80;;;;;;5149573;27;20373;-66
2021/03/23 02:29:52;;;;;;;7.37;5.47;;;7.50;78.90;;;;;;5148659;27;20353;-65
2021/03/23 02:32:18;;;;;;;11.33;6.33;;;7.50;78.80;;;;;;5149366;27;20632;-66
2021/03/23 02:34:44;;;;;;;12.87;6.40;;;7.40;78.80;;;;;;5149979;27;20325;-66
2021/03/23 02:37:15;;;;;;;10.50;5.90;;;7.40;78.90;;;;;;5148797;27;20292;-65
2021/03/23 02:39:41;;;;;;;10.90;6.67;;;7.40;78.90;;;;;;5149449;27;20296;-66
2021/03/23 02:42:08;;;;;;;11.67;7.30;;;7.40;79.00;;;;;;5149606;27;20338;-65
2021/03/23 02:44:43;;;;;;;11.40;6.47;;;7.40;79.10;;;;;;5149434;27;20459;-65
2021/03/23 02:47:09;;;;;;;7.00;5.03;;;7.40;79.20;;;;;;5149716;27;20300;-65
2021/03/23 02:49:35;;;;;;;11.17;6.00;;;7.30;79.20;;;;;;5149892;27;20648;-64
2021/03/23 02:52:01;;;;;;;9.93;5.30;;;7.30;79.30;;;;;;5148629;27;20296;-66
2021/03/23 02:54:27;;;;;;;9.40;6.00;;;7.30;79.40;;;;;;5150177;27;20296;-66
2021/03/23 02:56:52;;;;;;;9.47;6.83;;;7.20;79.50;;;;;;5149261;27;20383;-65
2021/03/23 02:59:18;;;;;;;12.47;6.07;;;7.20;79.50;;;;;;5148501;27;20503;-65
2021/03/23 03:01:44;;;;;;;10.23;6.13;;;7.10;79.70;;;;;;5149646;27;20491;-65
2021/03/23 03:04:09;;;;;;;9.67;6.30;;;7.00;79.90;;;;;;5148876;27;20387;-65
2021/03/23 03:06:35;;;;;;;9.73;5.40;;;7.00;80.00;;;;;;5148809;27;20487;-65
2021/03/23 03:09:01;;;;;;;10.27;6.20;;;6.90;81.10;;;;;;5149142;27;20479;-65
2021/03/23 03:11:27;;;;;;;11.23;6.73;;;6.90;80.30;;;;;;5152979;27;20053;-65
2021/03/23 03:13:53;;;;;;;10.77;6.23;;;6.80;80.40;;;;;;5152068;27;20300;-65
2021/03/23 03:16:18;;;;;;;14.77;6.97;;;6.80;80.60;;;;;;5152664;27;20623;-65
2021/03/23 03:18:44;;;;;;;9.80;7.03;;;6.70;80.90;;;;;;5152502;27;20054;-65
2021/03/23 03:21:10;;;;;;;11.83;7.30;;;6.70;80.80;;;;;;5152775;27;20054;-65
2021/03/23 03:23:37;;;;;;;9.97;6.07;;;6.70;81.10;;;;;;5152691;27;20050;-65
2021/03/23 03:26:04;;;;;;;11.57;7.43;;;6.70;81.20;;;;;;5151552;27;20299;-65
2021/03/23 03:28:31;;;;;;;12.77;6.90;;;6.70;81.30;;;;;;5153233;27;20057;-65
2021/03/23 03:30:57;;;;;;;10.63;6.90;;;6.70;81.50;;;;;;5152776;27;20701;-65
2021/03/23 03:33:24;;;;;;;14.23;7.67;;;6.60;81.60;;;;;;5152242;27;20280;-65
2021/03/23 03:35:51;;;;;;;12.37;6.63;;;6.60;81.70;;;;;;5152622;27;20550;-66
2021/03/23 03:38:19;;;;;;;11.10;7.43;;;6.60;81.80;;;;;;5152806;27;20341;-65
2021/03/23 03:40:53;;;;;;;11.43;7.40;;;6.60;81.90;;;;;;5151535;27;20332;-65
2021/03/23 03:43:22;;;;;;;9.77;6.47;;;6.60;82.00;;;;;;5152064;27;20312;-65
2021/03/23 03:45:48;;;;;;;12.37;7.37;;;6.60;82.10;;;;;;5152177;27;20306;-65
2021/03/23 03:48:14;;;;;;;11.67;7.50;;;6.60;82.10;;;;;;5151950;27;20304;-65
2021/03/23 03:50:40;;;;;;;13.53;7.67;;;6.60;82.20;;;;;;5152044;27;20481;-65
2021/03/23 03:53:07;;;;;;;13.20;7.50;;;6.60;82.00;;;;;;5151980;27;20077;-64
2021/03/23 03:55:38;;;;;;;15.80;8.60;;;6.60;82.10;;;;;;5151993;27;20051;-65
2021/03/23 03:58:04;;;;;;;12.80;7.55;;;6.70;82.20;;;;;;5152209;27;20300;-64
2021/03/23 04:00:32;;;;;;;14.27;8.10;;;6.60;82.10;;;;;;5152110;27;20079;-65
2021/03/23 04:02:59;;;;;;;17.07;7.90;;;6.60;82.20;;;;;;5150852;27;20308;-65
2021/03/23 04:05:34;;;;;;;12.87;8.03;;;6.60;82.30;;;;;;5152212;27;21206;-65
2021/03/23 04:08:01;;;;;;;12.83;9.27;;;6.60;82.40;;;;;;5150973;27;20300;-64
2021/03/23 04:10:28;;;;;;;15.37;10.17;;;6.50;82.60;;;;;;5151811;27;20303;-65
2021/03/23 04:12:54;;;;;;;17.10;9.37;;;6.50;82.70;;;;;;5151669;27;20379;-66
2021/03/23 04:15:25;;;;;;;14.57;8.93;;;6.50;83.60;;;;;;5151456;27;20664;-65
2021/03/23 04:17:51;;;;;;;12.55;8.63;;;6.50;82.80;;;;;;5151894;27;20042;-65
2021/03/23 04:20:20;;;;;;;14.40;8.67;;;6.50;82.80;;;;;;5151996;27;20050;-65
2021/03/23 04:22:46;;;;;;;12.57;8.33;;;6.60;83.00;;;;;;5150960;27;20527;-66
2021/03/23 04:25:14;;;;;;;13.07;9.07;;;6.60;82.90;;;;;;5151981;27;20303;-65
2021/03/23 04:27:40;;;;;;;13.47;9.23;;;6.60;82.90;;;;;;5151367;27;20327;-65
2021/03/23 04:30:08;;;;;;;15.30;10.83;;;6.60;82.90;;;;;;5150632;27;20300;-65
2021/03/23 04:32:35;;;;;;;13.83;9.87;;;6.60;83.00;;;;;;5151627;27;20057;-65
2021/03/23 04:35:02;;;;;;;16.63;10.67;;;6.60;82.90;;;;;;5151796;27;20296;-65
2021/03/23 04:37:28;;;;;;;15.60;9.93;;;6.60;83.00;;;;;;5150680;27;20296;-65
2021/03/23 04:39:54;;;;;;;18.60;11.60;;;6.60;83.00;;;;;;5151210;27;20652;-65
2021/03/23 04:42:19;;;;;;;17.10;10.70;;;6.60;83.00;;;;;;5151499;27;20481;-65
2021/03/23 04:44:45;;;;;;;19.97;11.70;;;6.70;83.10;;;;;;5150311;27;20046;-65
2021/03/23 04:47:10;;;;;;;19.37;11.97;;;6.60;83.00;;;;;;5150901;27;20066;-65
2021/03/23 04:49:36;;;;;;;17.60;11.50;;;6.60;83.00;;;;;;5151309;27;20053;-66
2021/03/23 04:52:02;;;;;;;19.97;11.80;;;6.60;83.10;;;;;;5150543;27;20125;-66
2021/03/23 04:54:29;;;;;;;17.80;11.27;;;6.60;83.20;;;;;;5151153;27;20495;-65
2021/03/23 04:56:55;;;;;;;19.90;12.53;;;6.60;83.20;;;;;;5150886;27;20330;-65
2021/03/23 04:59:20;;;;;;;19.63;12.67;;;6.70;83.30;;;;;;5149949;27;20303;-65
2021/03/23 05:01:46;;;;;;;18.20;12.23;;;6.70;83.20;;;;;;5151253;27;20194;-65
2021/03/23 05:04:17;;;;;;;21.40;13.30;;;6.70;83.00;;;;;;5150007;27;20566;-65
2021/03/23 05:06:43;;;;;;;23.90;13.77;;;6.70;82.90;;;;;;5151022;27;20046;-65
2021/03/23 05:09:09;;;;;;;24.83;13.60;;;6.70;82.90;;;;;;5151088;27;20177;-65
2021/03/23 05:11:35;;;;;;;20.57;14.10;;;6.70;82.90;;;;;;5150479;27;20444;-65
2021/03/23 05:14:03;;;;;;;24.30;13.33;;;6.70;82.90;;;;;;5150526;27;20054;-64
2021/03/23 05:16:28;;;;;;;17.17;11.40;;;6.80;83.00;;;;;;5150761;27;20292;-65
2021/03/23 05:18:54;;;;;;;22.77;13.13;;;6.80;82.90;;;;;;5150061;27;20295;-65
2021/03/23 05:21:21;;;;;;;19.03;13.20;;;6.80;82.70;;;;;;5150302;27;20456;-66
2021/03/23 05:23:47;;;;;;;21.73;13.53;;;6.80;82.60;;;;;;5150366;27;20050;-65
2021/03/23 05:26:13;;;;;;;18.23;12.80;;;6.90;82.60;;;;;;5149450;27;20638;-65
2021/03/23 05:28:39;;;;;;;21.20;13.27;;;6.90;82.40;;;;;;5150646;27;20299;-65
2021/03/23 05:31:05;;;;;;;19.77;12.73;;;6.90;82.30;;;;;;5150176;27;20103;-65
2021/03/23 05:33:32;;;;;;;22.17;13.03;;;6.90;82.40;;;;;;5149385;27;20050;-65
2021/03/23 05:35:58;;;;;;;22.47;13.97;;;6.90;82.40;;;;;;5150512;27;20291;-66
2021/03/23 05:38:26;;;;;;;17.90;12.33;;;6.90;82.50;;;;;;5150003;27;20803;-65
2021/03/23 05:41:43;;;;;;;19.83;12.97;;;6.90;82.40;;;;;;5149222;27;20303;-65
2021/03/23 05:44:36;;;;;;;19.00;11.87;;;6.90;82.10;;;;;;5088269;27;20369;-65
2021/03/23 05:47:02;;;;;;;20.33;12.47;;;6.90;82.20;;;;;;5148959;27;20788;-65
2021/03/23 05:49:33;;;;;;;18.17;12.17;;;6.90;82.20;;;;;;5150696;27;20421;-65
2021/03/23 05:52:04;;;;;;;20.73;13.63;;;7.00;82.10;;;;;;5150321;27;20055;-65
2021/03/23 05:54:33;;;;;;;21.40;13.10;;;6.90;81.90;;;;;;5149686;27;20292;-65
2021/03/23 05:57:03;;;;;;;21.03;12.87;;;6.90;82.10;;;;;;5150315;27;20058;-65
2021/03/23 05:59:51;;;;;;;20.83;12.03;;;7.00;82.10;;;;;;5150470;27;20288;-65
2021/03/23 06:02:24;;;;;;;15.97;12.67;;;6.90;81.90;;;;;;5149294;27;20407;-67
2021/03/23 06:05:15;;;;;;;17.30;12.73;;;7.00;81.80;;;;;;5149526;27;20292;-65
2021/03/23 06:07:40;;;;;;;19.23;13.40;;;7.00;81.80;;;;;;5148935;27;20308;-65
2021/03/23 06:10:18;;;;;;;17.13;13.27;;;7.00;81.60;;;;;;5131107;27;20349;-65
2021/03/23 06:13:06;;;;;;;21.17;12.90;;;7.00;81.80;;;;;;5150112;27;20049;-65
2021/03/23 06:15:54;;;;;;;20.67;14.03;;;7.00;81.80;;;;;;5149509;27;20304;-65
2021/03/23 06:18:42;;;;;;;18.67;12.33;;;7.00;81.80;;;;;;5149569;27;20303;-65
2021/03/23 06:21:19;;;;;;;19.10;13.63;;;7.00;81.80;;;;;;5149738;27;20687;-65
2021/03/23 06:23:58;;;;;;;17.97;12.73;;;7.10;81.80;;;;;;5148690;27;20304;-65
2021/03/23 06:26:45;;;;;;;17.47;12.80;;;7.10;81.60;;;;;;5149724;27;20296;-65
2021/03/23 06:29:19;;;;;;;18.77;13.33;;;7.20;81.50;;;;;;5149305;27;20292;-65
2021/03/23 06:32:06;;;;;;;19.27;13.77;;;7.10;81.50;;;;;;5149472;27;20300;-65
2021/03/23 06:34:35;;;;;;;20.27;12.63;;;7.20;81.60;;;;;;5149777;27;20371;-65
2021/03/23 06:37:16;;;;;;;23.03;13.70;;;7.20;81.60;;;;;;5148542;27;20304;-65
2021/03/23 06:39:42;;;;;;;16.58;12.98;;;7.30;81.50;;;;;;5149882;27;20304;-65
2021/03/23 06:42:08;;;;;;;16.93;13.27;;;7.30;81.30;;;;;;5149739;27;20058;-65
2021/03/23 06:44:39;;;;;;;19.00;13.00;;;7.40;81.10;;;;;;5149698;27;20511;-65
2021/03/23 06:47:25;;;;;;;16.63;12.95;;;7.40;81.00;;;;;;5153358;27;20187;-65
2021/03/23 06:49:51;;;;;;;19.27;13.47;;;7.40;81.10;;;;;;5152537;27;20396;-65
2021/03/23 06:52:20;;;;;;;18.60;14.23;;;7.40;81.20;;;;;;5153290;27;20311;-65
2021/03/23 06:55:16;;;;;;;19.17;13.67;;;7.40;81.00;;;;;;5153113;27;20458;-66
2021/03/23 06:57:42;;;;;;;18.30;13.77;;;7.40;81.20;;;;;;5152548;27;20307;-65
2021/03/23 07:00:14;;;;;;;22.43;13.63;;;7.40;81.00;;;;;;5152978;27;20295;-65
2021/03/23 07:02:48;;;;;;;19.88;14.55;;;7.40;81.10;;;;;;5153126;27;20395;-65
2021/03/23 07:05:35;;;;;;;21.03;14.90;;;7.50;81.00;;;;;;5152094;27;20050;-65
2021/03/23 07:08:03;;;;;;;23.37;14.37;;;7.60;80.80;;;;;;5145987;27;20410;-65
2021/03/23 07:10:33;;;;;;;19.33;14.43;;;7.60;80.70;;;;;;5152963;27;20300;-65
2021/03/23 07:12:59;;;;;;;20.97;15.37;;;7.60;80.80;;;;;;5152432;27;20284;-65
2021/03/23 07:15:37;;;;;;;24.43;16.23;;;7.60;80.80;;;;;;5152548;27;20391;-65
2021/03/23 07:18:06;;;;;;;21.17;15.23;;;7.70;80.80;;;;;;5150167;27;20360;-66
2021/03/23 07:20:36;;;;;;;22.70;15.47;;;7.70;80.60;;;;;;5149858;27;20703;-64
2021/03/23 07:23:23;;;;;;;21.03;15.53;;;7.80;80.50;;;;;;5152406;27;20308;-66
2021/03/23 07:25:49;;;;;;;21.63;15.40;;;7.80;80.20;;;;;;5150531;27;20292;-65
2021/03/23 07:28:32;;;;;;;21.10;16.83;;;7.80;80.40;;;;;;5151343;27;21128;-66
2021/03/23 07:31:16;;;;;;;22.33;16.87;;;7.90;80.30;;;;;;5152852;27;20324;-65
2021/03/23 07:33:45;;;;;;;23.87;16.60;;;7.90;80.10;;;;;;5148833;27;20320;-66
2021/03/23 07:36:15;;;;;;;24.23;15.93;;;8.00;80.00;;;;;;5152471;27;20893;-65
2021/03/23 07:38:51;;;;;;;27.17;18.30;;;8.00;80.00;;;;;;5151869;27;20376;-65
2021/03/23 07:41:36;;;;;;;26.00;17.63;;;8.00;80.20;;;;;;5151235;27;20349;-64
2021/03/23 07:44:18;;;;;;;28.13;19.73;;;8.00;80.10;;;;;;5151394;27;20308;-65
2021/03/23 07:46:49;;;;;;;23.30;18.47;;;8.00;80.10;;;;;;5148912;27;20318;-65
2021/03/23 07:49:33;;;;;;;29.00;19.40;;;8.10;80.10;;;;;;5151897;27;20308;-65
2021/03/23 07:52:08;;;;;;;27.27;18.77;;;8.10;80.00;;;;;;5151166;27;20845;-65
2021/03/23 07:54:37;;;;;;;25.73;19.00;;;8.20;80.00;;;;;;5151343;27;20299;-65
2021/03/23 07:57:30;;;;;;;28.57;19.00;;;8.30;79.80;;;;;;5150970;27;20283;-65
2021/03/23 08:00:19;;;;;;;27.10;19.23;;;8.40;79.50;;;;;;5150387;27;20352;-65
2021/03/23 08:03:18;;;;;;;28.27;21.60;;;8.40;79.50;;;;;;5150530;27;20395;-65
2021/03/23 08:06:30;;;;;;;27.30;20.70;;;8.40;79.40;;;;;;5149290;27;20967;-65
2021/03/23 08:09:19;;;;;;;26.35;18.92;;;8.40;79.20;;;;;;5084420;27;20296;-65
2021/03/23 08:12:07;;;;;;;28.57;19.83;;;8.40;79.40;;;;;;5149204;27;20047;-65
2021/03/23 08:15:02;;;;;;;23.80;16.87;;;8.50;79.50;;;;;;5132817;27;20659;-66
2021/03/23 08:18:00;;;;;;;26.63;19.70;;;8.50;79.30;;;;;;5149948;27;20324;-66
2021/03/23 08:21:01;;;;;;;31.40;21.73;;;8.60;79.20;;;;;;5149324;27;20848;-66
2021/03/23 08:23:45;;;;;;;31.57;21.77;;;8.80;79.00;;;;;;5149840;27;20304;-66
2021/03/23 08:26:35;;;;;;;31.40;20.43;;;8.80;78.80;;;;;;5150321;27;20637;-66
2021/03/23 08:29:15;;;;;;;30.20;22.83;;;9.00;78.70;;;;;;5149829;27;20709;-66
2021/03/23 08:32:15;;;;;;;29.33;20.77;;;9.10;78.20;;;;;;5151013;27;21126;-66
2021/03/23 08:34:41;;;;;;;29.00;20.27;;;9.20;77.80;;;;;;5151152;27;20359;-66
2021/03/23 08:37:38;;;;;;;27.30;19.70;;;9.30;77.80;;;;;;5150302;27;20969;-66
2021/03/23 08:40:09;;;;;;;29.43;20.67;;;9.40;77.30;;;;;;5150310;27;20050;-66
2021/03/23 08:42:36;;;;;;;;;;;9.50;77.30;;;;;;5149132;27;20315;-65
2021/03/23 08:45:17;;;;;;;28.43;20.37;;;9.50;76.30;;;;;;5149202;27;19962;-66
2021/03/23 08:47:47;;;;;;;30.23;22.73;;;9.60;76.90;;;;;;5149343;27;20868;-66
2021/03/23 08:50:30;;;;;;;25.43;21.30;;;9.60;76.40;;;;;;5147691;27;20035;-66
2021/03/23 08:52:58;;;;;;;25.37;19.27;;;9.70;76.00;;;;;;5149589;27;20304;-65
2021/03/23 08:55:27;;;;;;;29.10;20.37;;;9.80;75.90;;;;;;5148837;27;20098;-65
2021/03/23 08:58:00;;;;;;;28.13;20.37;;;9.80;75.00;;;;;;5148242;27;20339;-66
2021/03/23 09:00:48;;;;;;;32.30;23.17;;;9.80;74.60;;;;;;5147103;27;20636;-65
2021/03/23 09:03:14;;;;;;;28.97;23.00;;;9.70;74.10;;;;;;5146249;27;20099;-66
2021/03/23 09:05:52;;;;;;;30.03;22.17;;;9.70;74.70;;;;;;5149263;27;20050;-66
2021/03/23 09:08:28;;;;;;;31.70;23.17;;;9.70;74.50;;;;;;5147809;27;20050;-65
2021/03/23 09:11:08;;;;;;;26.30;20.47;;;9.70;74.80;;;;;;5149306;27;20783;-65
2021/03/23 09:13:33;;;;;;;27.00;19.70;;;9.80;74.50;;;;;;5151318;27;20073;-66
2021/03/23 09:16:00;;;;;;;29.63;23.23;;;9.80;74.60;;;;;;5150221;27;20720;-66
2021/03/23 09:18:33;;;;;;;26.37;21.50;;;10.00;74.30;;;;;;5149645;27;20053;-65
2021/03/23 09:21:02;;;;;;;28.43;21.70;;;10.10;73.50;;;;;;5150112;27;20054;-65
2021/03/23 09:23:27;;;;;;;35.50;25.83;;;10.00;73.20;;;;;;5151020;27;20050;-66
2021/03/23 09:25:58;;;;;;;26.07;22.50;;;10.00;74.10;;;;;;5149338;27;20042;-66
2021/03/23 09:28:33;;;;;;;29.05;22.77;;;10.00;72.80;;;;;;5150129;27;20042;-65
2021/03/23 09:31:12;;;;;;;27.47;22.37;;;9.90;72.70;;;;;;5149765;27;20103;-66
2021/03/23 09:33:47;;;;;;;30.47;23.23;;;9.90;72.70;;;;;;5149941;27;20138;-65
2021/03/23 09:36:16;;;;;;;28.70;23.07;;;10.00;72.50;;;;;;5131421;27;20042;-65
2021/03/23 09:38:47;;;;;;;31.27;23.53;;;10.10;72.10;;;;;;5149014;27;20193;-65
2021/03/23 09:41:22;;;;;;;29.52;23.63;;;10.20;72.10;;;;;;5149885;27;20039;-65
2021/03/23 09:43:51;;;;;;;25.73;21.47;;;10.30;71.40;;;;;;5150213;27;20178;-65
2021/03/23 09:46:23;;;;;;;28.63;23.87;;;10.30;71.30;;;;;;5149179;27;20047;-65
2021/03/23 09:49:11;;;;;;;27.83;23.80;;;10.30;71.10;;;;;;5149805;27;20086;-64
2021/03/23 09:51:46;;;;;;;28.23;22.50;;;10.30;70.70;;;;;;5149958;27;20125;-65
2021/03/23 09:54:21;;;;;;;27.63;20.67;;;10.40;70.90;;;;;;5148820;27;20051;-65
2021/03/23 09:56:49;;;;;;;27.70;23.80;;;10.40;70.90;;;;;;5150362;27;20112;-65
2021/03/23 09:59:19;;;;;;;28.50;21.93;;;10.40;70.70;;;;;;5149739;27;20138;-65
2021/03/23 10:01:59;;;;;;;25.10;20.13;;;10.40;70.90;;;;;;5149320;27;20106;-65
2021/03/23 10:04:39;;;;;;;31.00;25.37;;;10.50;70.90;;;;;;5148904;27;20074;-65
2021/03/23 10:07:08;;;;;;;27.70;24.70;;;10.50;70.50;;;;;;5149358;27;20043;-65
2021/03/23 10:09:36;;;;;;;29.67;25.30;;;10.50;70.80;;;;;;5149740;27;20134;-65
2021/03/23 10:12:04;;;;;;;28.17;22.57;;;10.70;70.40;;;;;;5148447;27;20324;-66
2021/03/23 10:14:38;;;;;;;27.57;24.57;;;10.70;70.10;;;;;;5148341;27;20071;-65
2021/03/23 10:17:08;;;;;;;28.87;24.10;;;10.80;70.20;;;;;;5148871;27;20043;-65
2021/03/23 10:19:47;;;;;;;29.00;24.67;;;11.00;69.80;;;;;;5151472;27;20046;-65
2021/03/23 10:22:23;;;;;;;30.67;25.37;;;11.20;69.40;;;;;;5152482;27;20039;-66
2021/03/23 10:24:53;;;;;;;29.47;24.60;;;11.30;68.90;;;;;;5153151;27;20411;-66
2021/03/23 10:27:38;;;;;;;35.13;25.87;;;11.40;68.40;;;;;;5153749;27;20045;-66
2021/03/23 10:30:16;;;;;;;29.57;24.57;;;11.50;67.60;;;;;;5153097;27;20046;-66
2021/03/23 10:32:45;;;;;;;29.83;25.90;;;11.70;67.90;;;;;;5153037;27;20104;-65
2021/03/23 10:35:40;;;;;;;30.13;25.90;;;11.90;67.60;;;;;;5152555;27;20056;-65
2021/03/23 10:38:21;;;;;;;32.73;25.70;;;12.00;65.90;;;;;;5143741;27;20562;-65
2021/03/23 10:40:52;;;;;;;30.92;26.80;;;12.10;66.20;;;;;;5153319;27;20046;-65
2021/03/23 10:43:39;;;;;;;32.05;25.23;;;12.10;65.90;;;;;;5152379;27;20050;-65
2021/03/23 10:46:26;;;;;;;28.97;25.47;;;12.10;65.30;;;;;;5152606;27;20068;-66
2021/03/23 10:48:52;;;;;;;30.30;26.00;;;12.20;65.30;;;;;;5151989;27;20137;-65
2021/03/23 10:51:25;;;;;;;29.93;24.23;;;12.20;65.80;;;;;;5152600;27;20180;-66
2021/03/23 10:54:12;;;;;;;30.90;25.70;;;12.30;65.20;;;;;;5153515;27;20133;-65
2021/03/23 10:56:40;;;;;;;31.47;25.60;;;12.40;64.70;;;;;;5151947;27;20058;-67
2021/03/23 10:59:21;;;;;;;31.77;25.47;;;12.40;64.80;;;;;;5152532;27;20042;-65
2021/03/23 11:02:05;;;;;;;24.83;22.17;;;12.40;64.80;;;;;;5152604;27;20058;-65
2021/03/23 11:04:33;;;;;;;28.27;25.00;;;12.50;64.60;;;;;;5152075;27;20100;-65
2021/03/23 11:07:23;;;;;;;31.33;25.23;;;12.60;65.10;;;;;;5152829;27;20050;-65
2021/03/23 11:09:58;;;;;;;30.67;26.57;;;12.80;63.50;;;;;;5151681;27;20070;-65
2021/03/23 11:12:24;;;;;;;32.07;26.17;;;12.90;63.40;;;;;;5152089;27;20310;-65
2021/03/23 11:14:50;;;;;;;28.57;24.63;;;13.00;63.00;;;;;;5151815;27;20545;-65
2021/03/23 11:17:21;;;;;;;32.53;26.47;;;13.00;63.20;;;;;;5152061;27;20038;-65
2021/03/23 11:19:57;;;;;;;31.17;26.47;;;13.10;62.50;;;;;;5152113;27;20041;-66
2021/03/23 11:22:32;;;;;;;31.30;25.63;;;13.10;62.30;;;;;;5152323;27;20045;-65
2021/03/23 11:24:57;;;;;;;27.30;24.40;;;13.20;61.70;;;;;;5151856;27;20045;-65
2021/03/23 11:27:27;;;;;;;27.97;24.43;;;13.20;61.70;;;;;;5152479;27;20050;-65
2021/03/23 11:29:57;;;;;;;27.20;24.13;;;13.10;61.60;;;;;;5151961;27;20073;-65
2021/03/23 11:32:24;;;;;;;30.33;26.53;;;13.00;61.50;;;;;;5150676;27;20130;-65
2021/03/23 11:34:51;;;;;;;29.77;26.47;;;12.90;61.70;;;;;;5151564;27;20054;-65
2021/03/23 11:37:18;;;;;;;32.53;26.40;;;12.80;61.80;;;;;;5152314;27;20544;-67
2021/03/23 11:39:44;;;;;;;25.07;22.40;;;12.60;62.10;;;;;;5150798;27;20505;-65
2021/03/23 11:42:27;;;;;;;30.30;26.03;;;12.50;62.70;;;;;;5151518;27;20166;-65
2021/03/23 11:45:00;;;;;;;32.43;27.17;;;12.40;62.80;;;;;;5151689;27;20050;-64
2021/03/23 11:47:44;;;;;;;32.17;26.93;;;12.30;63.60;;;;;;5152013;27;20245;-65
2021/03/23 11:50:12;;;;;;;34.43;28.73;;;12.30;63.90;;;;;;5151392;27;20046;-65
2021/03/23 11:52:39;;;;;;;32.40;26.37;;;12.20;64.20;;;;;;5150685;27;20137;-65
2021/03/23 11:55:08;;;;;;;28.83;21.87;;;12.20;64.00;;;;;;5151788;27;20674;-64
2021/03/23 11:57:34;;;;;;;32.87;27.53;;;12.20;64.50;;;;;;5152585;27;20074;-69
2021/03/23 12:00:00;;;;;;;28.83;25.77;;;12.20;64.20;;;;;;5151132;27;20067;-65
2021/03/23 12:02:29;;;;;;;36.80;30.13;;;12.20;63.50;;;;;;5151426;27;20047;-65
2021/03/23 12:04:55;;;;;;;37.87;29.53;;;12.20;63.80;;;;;;5151467;27;20062;-65
2021/03/23 12:07:24;;;;;;;33.70;28.73;;;12.00;64.00;;;;;;5151480;27;20423;-64
2021/03/23 12:09:58;;;;;;;37.73;30.03;;;11.90;64.30;;;;;;5148223;27;20061;-64
2021/03/23 12:12:43;;;;;;;37.53;30.80;;;11.90;64.50;;;;;;5150800;27;20047;-65
2021/03/23 12:15:24;;;;;;;35.33;28.77;;;11.80;64.80;;;;;;5151226;27;20203;-65
2021/03/23 12:17:54;;;;;;;34.22;28.50;;;11.80;65.30;;;;;;5151549;27;20047;-65
2021/03/23 12:20:23;;;;;;;38.10;29.30;;;11.80;65.40;;;;;;5150510;27;20433;-64
2021/03/23 12:22:51;;;;;;;35.20;28.93;;;11.80;65.60;;;;;;5151282;27;20138;-65
2021/03/23 12:25:20;;;;;;;36.33;27.87;;;11.80;65.70;;;;;;5151000;27;20046;-64
2021/03/23 12:27:45;;;;;;;34.27;28.93;;;11.80;65.70;;;;;;5150558;27;20046;-64
2021/03/23 12:30:13;;;;;;;37.57;30.93;;;11.80;65.70;;;;;;5150614;27;20050;-64
2021/03/23 12:32:40;;;;;;;41.03;31.90;;;11.90;65.70;;;;;;5151196;27;20039;-65
2021/03/23 12:35:28;;;;;;;37.47;30.70;;;12.00;65.60;;;;;;5147616;27;20054;-65
2021/03/23 12:38:00;;;;;;;44.27;34.80;;;12.10;65.20;;;;;;5150660;27;20046;-66
2021/03/23 12:40:28;;;;;;;42.60;32.33;;;12.20;64.80;;;;;;5150879;27;20047;-66
2021/03/23 12:42:54;;;;;;;41.67;33.43;;;12.10;65.90;;;;;;5148623;27;20046;-66
2021/03/23 12:45:33;;;;;;;34.63;30.40;;;12.00;64.70;;;;;;5150452;27;20046;-66
2021/03/23 12:47:59;;;;;;;39.33;32.77;;;11.90;64.80;;;;;;5150858;27;20055;-66
2021/03/23 12:50:25;;;;;;;38.33;33.27;;;11.90;65.10;;;;;;5149853;27;20543;-66
2021/03/23 12:52:53;;;;;;;39.67;31.90;;;11.90;65.10;;;;;;5150501;27;20039;-66
2021/03/23 12:55:23;;;;;;;39.93;32.10;;;11.90;65.00;;;;;;5150420;27;20054;-66
2021/03/23 12:57:52;;;;;;;35.33;30.80;;;12.00;64.70;;;;;;5150866;27;20185;-66
2021/03/23 13:00:38;;;;;;;42.93;31.63;;;12.00;64.70;;;;;;5150783;27;20050;-65
2021/03/23 13:03:05;;;;;;;40.33;33.43;;;12.10;64.30;;;;;;5149138;27;20099;-66
2021/03/23 13:05:32;;;;;;;42.17;32.13;;;12.20;64.60;;;;;;5150638;27;20078;-65